Time;durP1;ratioP1;P1;durP2;ratioP2;P2;SDS_P1;SDS_P2;PMS_P1;PMS_P2;Temp;Humidity;BMP_temperature;BMP_pressure;BME280_temperature;BME280_humidity;BME280_pressure;Samples;Min_cycle;Max_cycle;Signal;HPM_P1;HPM_P2
2023/06/04 00:01:38;;;;;;;0.95;0.85;;;20.30;61.00;;;;;;5040172;28;20222;-53
2023/06/04 00:04:05;;;;;;;2.13;1.00;;;20.30;61.00;;;;;;5040095;28;20613;-50
2023/06/04 00:06:32;;;;;;;1.20;0.90;;;20.30;61.00;;;;;;5047719;28;20196;-50
2023/06/04 00:08:58;;;;;;;1.15;0.82;;;20.30;61.10;;;;;;5038317;28;20204;-53
2023/06/04 00:11:26;;;;;;;1.23;0.80;;;20.30;61.10;;;;;;5037191;28;20202;-51
2023/06/04 00:13:53;;;;;;;1.10;0.88;;;20.20;61.00;;;;;;5021303;28;20226;-52
2023/06/04 00:16:20;;;;;;;1.17;1.00;;;20.20;61.00;;;;;;5042114;28;20254;-52
2023/06/04 00:18:46;;;;;;;1.20;0.90;;;20.30;61.20;;;;;;5041711;28;20215;-51
2023/06/04 00:21:13;;;;;;;1.15;0.70;;;20.20;61.20;;;;;;5049732;28;20196;-52
2023/06/04 00:23:40;;;;;;;1.27;0.95;;;20.20;61.20;;;;;;5045494;28;20227;-51
2023/06/04 00:26:06;;;;;;;1.00;0.70;;;20.30;61.30;;;;;;5043903;28;20196;-54
2023/06/04 00:28:34;;;;;;;1.30;0.90;;;20.20;61.20;;;;;;5043924;28;20199;-52
2023/06/04 00:31:05;;;;;;;1.40;1.10;;;20.30;61.40;;;;;;5040382;28;20192;-54
2023/06/04 00:33:32;;;;;;;1.10;0.95;;;20.20;61.30;;;;;;5045119;28;20286;-55
2023/06/04 00:35:59;;;;;;;1.30;0.90;;;20.30;61.40;;;;;;5044823;28;20753;-55
2023/06/04 00:38:25;;;;;;;1.85;0.90;;;20.20;61.30;;;;;;5046029;28;20196;-54
2023/06/04 00:40:52;;;;;;;1.30;0.75;;;20.20;61.40;;;;;;5051256;28;20199;-54
2023/06/04 00:43:19;;;;;;;1.27;1.00;;;20.30;61.50;;;;;;5043330;28;20425;-50
2023/06/04 00:45:47;;;;;;;1.85;0.90;;;20.20;61.40;;;;;;5044018;28;20310;-52
2023/06/04 00:48:14;;;;;;;1.30;0.90;;;20.20;61.40;;;;;;5039829;28;20198;-54
2023/06/04 00:50:40;;;;;;;1.38;0.90;;;20.30;61.60;;;;;;5047784;28;20587;-56
2023/06/04 00:53:08;;;;;;;1.85;0.90;;;20.20;61.50;;;;;;5046301;28;20226;-52
2023/06/04 00:55:35;;;;;;;1.50;1.10;;;20.20;61.50;;;;;;5048788;28;20269;-51
2023/06/04 00:58:02;;;;;;;1.85;0.90;;;20.20;61.50;;;;;;5047821;28;20286;-54
2023/06/04 01:00:29;;;;;;;2.05;1.10;;;20.20;61.60;;;;;;5042911;28;20196;-54
2023/06/04 01:03:02;;;;;;;1.00;0.90;;;20.20;61.60;;;;;;5039176;28;20199;-51
2023/06/04 01:05:37;;;;;;;1.10;0.93;;;20.20;61.70;;;;;;5041343;28;20655;-54
2023/06/04 01:08:05;;;;;;;1.08;0.98;;;20.20;61.70;;;;;;5045200;28;20199;-53
2023/06/04 01:10:32;;;;;;;1.30;1.00;;;20.20;61.70;;;;;;5049748;28;20195;-52
2023/06/04 01:12:58;;;;;;;1.40;0.82;;;20.20;61.70;;;;;;5050308;28;20195;-54
2023/06/04 01:15:25;;;;;;;1.55;1.00;;;20.20;61.80;;;;;;5043899;28;20219;-53
2023/06/04 01:18:02;;;;;;;1.55;1.05;;;20.20;61.80;;;;;;5045677;28;20537;-54
2023/06/04 01:20:35;;;;;;;1.20;0.90;;;20.20;61.80;;;;;;5040677;28;20294;-53
2023/06/04 01:23:24;;;;;;;1.33;1.02;;;20.20;61.80;;;;;;5050744;28;20206;-52
2023/06/04 01:25:51;;;;;;;1.58;0.90;;;20.20;61.90;;;;;;5041291;28;20282;-53
2023/06/04 01:28:20;;;;;;;1.20;1.00;;;20.20;61.90;;;;;;5046130;28;20203;-55
2023/06/04 01:30:48;;;;;;;1.13;0.95;;;20.20;62.00;;;;;;5050236;28;20191;-51
2023/06/04 01:33:18;;;;;;;1.70;1.00;;;20.20;62.00;;;;;;5049981;28;20203;-53
2023/06/04 01:35:46;;;;;;;0.90;0.70;;;20.20;62.00;;;;;;5049421;28;20265;-54
2023/06/04 01:38:14;;;;;;;1.13;0.90;;;20.20;62.00;;;;;;5043963;28;20686;-56
2023/06/04 01:40:41;;;;;;;1.45;1.00;;;20.20;62.00;;;;;;5052134;28;20563;-51
2023/06/04 01:43:08;;;;;;;1.05;0.93;;;20.20;62.00;;;;;;5048000;28;20295;-52
2023/06/04 01:45:35;;;;;;;1.27;1.13;;;20.20;62.10;;;;;;5048687;28;20196;-50
2023/06/04 01:48:02;;;;;;;1.13;0.70;;;20.20;62.10;;;;;;5047382;28;20199;-52
2023/06/04 01:50:30;;;;;;;1.25;0.90;;;20.20;62.10;;;;;;5045604;28;20195;-50
2023/06/04 01:52:58;;;;;;;1.00;0.85;;;20.20;62.20;;;;;;5048081;28;20666;-53
2023/06/04 01:55:26;;;;;;;1.90;0.80;;;20.20;62.20;;;;;;5046448;28;20234;-50
2023/06/04 01:57:53;;;;;;;1.35;1.25;;;20.20;62.30;;;;;;5050559;28;20199;-51
2023/06/04 02:00:20;;;;;;;1.40;0.80;;;20.20;62.30;;;;;;5043885;28;20223;-53
2023/06/04 02:02:47;;;;;;;1.33;0.90;;;20.20;62.30;;;;;;5044628;28;21029;-54
2023/06/04 02:05:14;;;;;;;1.10;0.90;;;20.20;62.30;;;;;;5042793;28;20758;-53
2023/06/04 02:07:44;;;;;;;2.65;1.25;;;20.20;62.30;;;;;;5048713;28;20203;-52
2023/06/04 02:10:14;;;;;;;1.20;0.80;;;20.20;62.40;;;;;;5051020;28;20663;-53
2023/06/04 02:12:42;;;;;;;1.38;0.82;;;20.20;63.20;;;;;;5049272;28;20203;-51
2023/06/04 02:15:11;;;;;;;1.35;0.95;;;20.20;62.40;;;;;;5045897;28;20224;-54
2023/06/04 02:17:39;;;;;;;1.20;0.90;;;20.20;62.40;;;;;;5044483;28;20203;-51
2023/06/04 02:20:09;;;;;;;1.10;0.90;;;20.10;63.10;;;;;;5047232;28;20667;-52
2023/06/04 02:22:36;;;;;;;1.10;0.80;;;20.20;62.50;;;;;;5050052;28;20672;-51
2023/06/04 02:25:03;;;;;;;1.35;0.82;;;20.20;62.40;;;;;;5045275;28;20215;-51
2023/06/04 02:27:31;;;;;;;1.10;0.80;;;20.10;62.40;;;;;;5042836;28;20712;-54
2023/06/04 02:29:58;;;;;;;1.10;0.93;;;20.20;62.50;;;;;;5046377;28;20203;-51
2023/06/04 02:32:25;;;;;;;1.42;1.00;;;20.20;62.50;;;;;;5044046;28;20200;-53
2023/06/04 02:34:51;;;;;;;1.35;1.15;;;20.20;62.50;;;;;;5043896;28;20215;-51
2023/06/04 02:37:18;;;;;;;1.02;0.85;;;20.20;62.60;;;;;;5046563;28;20690;-53
2023/06/04 02:39:45;;;;;;;1.10;0.88;;;20.20;62.60;;;;;;5044141;28;20262;-54
2023/06/04 02:42:11;;;;;;;1.10;1.00;;;20.20;62.60;;;;;;5045445;28;20258;-52
2023/06/04 02:44:39;;;;;;;1.30;0.88;;;20.20;62.60;;;;;;5046694;28;20250;-50
2023/06/04 02:47:07;;;;;;;1.10;0.70;;;20.10;62.60;;;;;;5043541;28;20196;-51
2023/06/04 02:49:33;;;;;;;1.00;0.90;;;20.10;62.60;;;;;;5047338;28;20753;-52
2023/06/04 02:52:00;;;;;;;1.10;0.90;;;20.10;62.60;;;;;;5043648;28;20192;-51
2023/06/04 02:54:27;;;;;;;1.48;0.80;;;20.20;62.80;;;;;;5048526;28;20226;-51
2023/06/04 02:56:53;;;;;;;1.10;0.80;;;20.10;62.60;;;;;;5046928;28;20508;-52
2023/06/04 02:59:20;;;;;;;1.15;0.85;;;20.10;62.60;;;;;;5046678;28;20210;-52
2023/06/04 03:01:49;;;;;;;1.42;0.88;;;20.10;63.40;;;;;;5045542;28;20199;-51
2023/06/04 03:04:17;;;;;;;1.00;0.80;;;20.20;62.80;;;;;;5047305;28;20277;-52
2023/06/04 03:06:46;;;;;;;1.10;0.88;;;20.10;62.70;;;;;;5039660;28;20219;-55
2023/06/04 03:09:12;;;;;;;1.20;0.90;;;20.20;62.90;;;;;;5046337;28;20196;-51
2023/06/04 03:11:39;;;;;;;1.20;0.93;;;20.10;62.70;;;;;;5042465;28;20217;-51
2023/06/04 03:14:06;;;;;;;1.42;1.10;;;20.10;62.70;;;;;;5043694;28;20203;-50
2023/06/04 03:16:32;;;;;;;1.42;0.98;;;20.10;62.80;;;;;;5049832;28;20257;-52
2023/06/04 03:19:01;;;;;;;1.30;1.08;;;20.10;62.70;;;;;;5044247;28;20218;-49
2023/06/04 03:21:28;;;;;;;1.00;0.75;;;20.10;62.70;;;;;;5042298;28;20639;-51
2023/06/04 03:23:55;;;;;;;1.10;0.85;;;20.10;62.80;;;;;;5044586;28;20219;-51
2023/06/04 03:26:22;;;;;;;1.50;1.10;;;20.20;63.00;;;;;;5042903;28;20287;-52
2023/06/04 03:28:48;;;;;;;1.30;0.90;;;20.10;62.80;;;;;;5051414;28;20253;-51
2023/06/04 03:31:15;;;;;;;1.10;0.80;;;20.10;62.80;;;;;;5044703;28;20188;-52
2023/06/04 03:33:42;;;;;;;1.10;0.80;;;20.20;63.00;;;;;;5049075;28;20286;-52
2023/06/04 03:36:10;;;;;;;1.10;0.90;;;20.10;62.80;;;;;;5045454;28;20656;-51
2023/06/04 03:38:36;;;;;;;1.13;0.95;;;20.10;62.80;;;;;;5047533;28;20199;-51
2023/06/04 03:41:03;;;;;;;1.13;0.98;;;20.10;62.80;;;;;;5044720;28;20203;-51
2023/06/04 03:43:30;;;;;;;2.05;0.80;;;20.10;62.80;;;;;;5045030;28;20808;-52
2023/06/04 03:45:56;;;;;;;1.05;0.80;;;20.10;62.80;;;;;;5044277;28;20219;-49
2023/06/04 03:48:23;;;;;;;1.10;0.82;;;20.10;62.90;;;;;;5046698;28;20196;-51
2023/06/04 03:50:50;;;;;;;1.55;0.88;;;20.10;62.90;;;;;;5045082;28;20199;-53
2023/06/04 03:53:18;;;;;;;1.60;1.10;;;20.10;62.90;;;;;;5045834;28;20761;-54
2023/06/04 03:55:45;;;;;;;1.10;0.90;;;20.10;63.00;;;;;;5045370;28;20211;-52
2023/06/04 03:58:11;;;;;;;1.00;0.90;;;20.10;62.90;;;;;;5048216;28;20217;-53
2023/06/04 04:00:38;;;;;;;1.15;0.80;;;20.10;63.00;;;;;;5044130;28;20207;-54
2023/06/04 04:03:07;;;;;;;1.10;1.00;;;20.10;63.00;;;;;;5044625;28;20266;-54
2023/06/04 04:05:35;;;;;;;1.10;0.90;;;20.10;62.90;;;;;;5044461;28;20210;-52
2023/06/04 04:08:02;;;;;;;1.75;1.48;;;20.10;63.10;;;;;;5044828;28;20671;-52
2023/06/04 04:10:30;;;;;;;1.45;0.80;;;20.10;63.10;;;;;;5045679;28;20215;-50
2023/06/04 04:12:58;;;;;;;1.17;0.93;;;20.10;63.00;;;;;;5039002;28;20204;-52
2023/06/04 04:15:24;;;;;;;1.10;0.80;;;20.10;63.00;;;;;;5042101;28;20224;-55
2023/06/04 04:17:51;;;;;;;1.10;0.85;;;20.10;63.00;;;;;;5047931;28;20273;-52
2023/06/04 04:20:18;;;;;;;1.02;0.85;;;20.10;63.10;;;;;;5038179;28;20249;-54
2023/06/04 04:22:44;;;;;;;1.10;0.80;;;20.10;63.10;;;;;;5042284;28;20219;-54
2023/06/04 04:25:11;;;;;;;1.17;0.95;;;20.10;63.00;;;;;;5044829;28;20702;-53
2023/06/04 04:27:41;;;;;;;0.90;0.70;;;20.10;63.10;;;;;;5041195;28;20196;-53
2023/06/04 04:30:09;;;;;;;1.10;0.80;;;20.10;63.10;;;;;;5041974;28;20200;-52
2023/06/04 04:32:38;;;;;;;1.40;1.10;;;20.10;63.10;;;;;;5044948;28;20196;-50
2023/06/04 04:35:07;;;;;;;0.90;0.70;;;20.10;63.10;;;;;;5045729;28;20231;-51
2023/06/04 04:37:38;;;;;;;1.00;0.82;;;20.10;63.10;;;;;;5044062;28;20273;-50
2023/06/04 04:40:09;;;;;;;1.30;0.88;;;20.10;63.20;;;;;;5051825;28;20222;-50
2023/06/04 04:42:35;;;;;;;1.20;0.90;;;20.10;63.10;;;;;;5046617;28;20207;-52
2023/06/04 04:45:04;;;;;;;1.10;0.85;;;20.10;63.20;;;;;;5042391;28;20203;-53
2023/06/04 04:47:31;;;;;;;1.15;1.05;;;20.10;63.10;;;;;;5048040;28;20804;-51
2023/06/04 04:49:57;;;;;;;1.10;0.80;;;20.10;63.20;;;;;;5044246;28;20200;-53
2023/06/04 04:52:24;;;;;;;1.10;0.90;;;20.10;63.20;;;;;;5047337;28;20203;-49
2023/06/04 04:54:55;;;;;;;1.00;0.90;;;20.10;63.20;;;;;;5050530;28;20618;-52
2023/06/04 04:57:22;;;;;;;0.90;0.70;;;20.10;63.20;;;;;;5046597;28;20304;-52
2023/06/04 04:59:48;;;;;;;2.15;0.90;;;20.00;63.10;;;;;;5042569;28;20873;-51
2023/06/04 05:02:17;;;;;;;1.20;0.90;;;20.00;63.10;;;;;;5042847;28;20219;-50
2023/06/04 05:04:43;;;;;;;1.00;0.90;;;20.10;63.20;;;;;;5038810;28;20192;-51
2023/06/04 05:07:10;;;;;;;1.20;0.80;;;20.00;63.20;;;;;;5045791;28;20192;-54
2023/06/04 05:09:37;;;;;;;1.30;1.00;;;20.00;63.10;;;;;;5047285;28;20249;-52
2023/06/04 05:12:04;;;;;;;1.05;0.80;;;20.10;63.20;;;;;;5041834;28;20667;-51
2023/06/04 05:14:31;;;;;;;1.50;0.98;;;20.00;63.10;;;;;;5037186;28;20241;-54
2023/06/04 05:16:58;;;;;;;1.00;0.82;;;20.00;63.10;;;;;;5045659;28;20219;-51
2023/06/04 05:19:25;;;;;;;1.10;0.82;;;20.00;63.10;;;;;;5042981;28;20219;-54
2023/06/04 05:21:52;;;;;;;1.38;1.00;;;20.00;63.10;;;;;;5040629;28;20204;-50
2023/06/04 05:24:19;;;;;;;1.00;0.90;;;20.00;63.10;;;;;;5043549;28;20218;-51
2023/06/04 05:26:48;;;;;;;1.15;0.80;;;20.00;63.10;;;;;;5044196;28;20235;-53
2023/06/04 05:29:15;;;;;;;1.20;1.05;;;20.00;63.20;;;;;;5033189;28;20204;-50
2023/06/04 05:31:42;;;;;;;1.10;0.95;;;20.00;63.20;;;;;;5047166;28;20277;-51
2023/06/04 05:34:09;;;;;;;2.13;1.00;;;20.00;63.20;;;;;;5043378;28;20551;-51
2023/06/04 05:36:37;;;;;;;1.63;1.10;;;20.00;63.20;;;;;;5041677;28;20223;-51
2023/06/04 05:39:04;;;;;;;1.10;0.90;;;20.00;63.20;;;;;;5045766;28;20195;-50
2023/06/04 05:41:30;;;;;;;1.30;0.88;;;20.00;63.20;;;;;;5045888;28;20569;-52
2023/06/04 05:43:57;;;;;;;1.42;1.23;;;20.00;63.30;;;;;;5046134;28;20567;-51
2023/06/04 05:46:24;;;;;;;1.48;1.05;;;20.00;63.30;;;;;;5047817;28;20617;-51
2023/06/04 05:48:51;;;;;;;1.15;0.88;;;20.00;63.30;;;;;;5047778;28;20199;-51
2023/06/04 05:51:18;;;;;;;0.98;0.77;;;20.00;63.30;;;;;;5046982;28;20217;-50
2023/06/04 05:53:46;;;;;;;1.20;0.90;;;20.00;63.30;;;;;;5047438;28;20199;-50
2023/06/04 05:56:13;;;;;;;1.20;0.90;;;20.00;63.50;;;;;;5051251;28;20226;-50
2023/06/04 05:58:40;;;;;;;2.20;0.90;;;20.00;63.40;;;;;;5045714;28;20245;-50
2023/06/04 06:01:07;;;;;;;1.05;0.80;;;20.00;63.50;;;;;;5049223;28;20290;-51
2023/06/04 06:03:34;;;;;;;1.83;1.05;;;20.00;63.60;;;;;;5055356;28;20250;-52
2023/06/04 06:06:01;;;;;;;1.10;1.00;;;20.00;63.70;;;;;;5049791;28;20257;-55
2023/06/04 06:08:27;;;;;;;2.40;1.20;;;20.00;63.80;;;;;;5046310;28;20204;-53
2023/06/04 06:10:56;;;;;;;2.95;0.90;;;20.00;63.90;;;;;;5048149;28;20270;-52
2023/06/04 06:13:23;;;;;;;1.40;1.10;;;20.00;64.00;;;;;;5038772;28;20291;-54
2023/06/04 06:15:49;;;;;;;3.05;1.15;;;20.00;64.30;;;;;;5041571;28;20241;-54
2023/06/04 06:18:16;;;;;;;2.75;1.15;;;20.10;64.40;;;;;;5046241;28;20215;-54
2023/06/04 06:20:43;;;;;;;1.60;1.45;;;20.00;64.40;;;;;;5048324;28;20196;-55
2023/06/04 06:23:10;;;;;;;2.90;0.90;;;20.10;64.80;;;;;;5044838;28;20192;-55
2023/06/04 06:25:36;;;;;;;1.52;1.20;;;20.00;64.80;;;;;;5045673;28;20195;-53
2023/06/04 06:28:04;;;;;;;3.05;0.98;;;20.10;64.90;;;;;;5045932;28;20204;-56
2023/06/04 06:30:31;;;;;;;3.75;1.13;;;20.00;64.90;;;;;;5046976;28;20916;-54
2023/06/04 06:32:57;;;;;;;3.22;1.30;;;20.10;65.10;;;;;;5048059;28;20599;-51
2023/06/04 06:35:24;;;;;;;1.48;1.15;;;20.10;65.20;;;;;;5045503;28;21458;-55
2023/06/04 06:37:51;;;;;;;1.48;0.90;;;20.10;65.20;;;;;;5047709;28;20220;-54
2023/06/04 06:40:18;;;;;;;2.05;1.00;;;20.10;65.40;;;;;;5048883;28;20207;-52
2023/06/04 06:42:49;;;;;;;1.20;1.10;;;20.00;65.20;;;;;;5043644;28;20192;-52
2023/06/04 06:45:18;;;;;;;1.38;0.98;;;20.00;65.30;;;;;;5043378;28;20196;-51
2023/06/04 06:47:45;;;;;;;2.47;1.00;;;20.10;65.50;;;;;;5040706;28;20203;-52
2023/06/04 06:50:12;;;;;;;2.65;1.00;;;20.00;65.40;;;;;;5035204;28;20195;-55
2023/06/04 06:52:38;;;;;;;1.42;1.05;;;20.00;65.40;;;;;;5049775;28;20204;-52
2023/06/04 06:55:05;;;;;;;1.80;1.10;;;20.10;65.60;;;;;;5047362;28;20194;-52
2023/06/04 06:57:33;;;;;;;1.35;1.13;;;20.00;65.50;;;;;;5046910;28;20268;-51
2023/06/04 07:00:00;;;;;;;3.97;1.33;;;20.00;65.60;;;;;;5044464;28;20188;-55
2023/06/04 07:02:28;;;;;;;1.42;1.00;;;20.10;65.70;;;;;;5040750;28;20273;-53
2023/06/04 07:04:55;;;;;;;2.55;1.30;;;20.00;65.60;;;;;;5044238;28;20551;-53
2023/06/04 07:07:22;;;;;;;7.18;1.20;;;20.10;65.90;;;;;;5048134;28;20686;-54
2023/06/04 07:09:49;;;;;;;1.95;1.20;;;20.10;65.70;;;;;;5046313;28;20606;-52
2023/06/04 07:12:15;;;;;;;1.10;0.90;;;20.10;65.80;;;;;;5042949;28;20675;-53
2023/06/04 07:14:43;;;;;;;20.05;1.20;;;20.10;66.00;;;;;;5044347;28;20595;-56
2023/06/04 07:17:09;;;;;;;3.30;1.00;;;20.10;65.90;;;;;;5046651;28;20220;-51
2023/06/04 07:19:37;;;;;;;2.45;1.10;;;20.10;66.00;;;;;;5048409;28;20196;-53
2023/06/04 07:22:04;;;;;;;6.45;1.10;;;20.10;65.90;;;;;;5057945;28;20203;-52
2023/06/04 07:24:31;;;;;;;1.20;1.08;;;20.10;66.10;;;;;;5048110;28;20629;-54
2023/06/04 07:26:58;;;;;;;1.20;0.95;;;20.10;66.10;;;;;;5050029;28;20202;-52
2023/06/04 07:29:25;;;;;;;2.40;1.25;;;20.10;66.10;;;;;;5039694;28;20667;-52
2023/06/04 07:31:51;;;;;;;1.75;1.20;;;20.10;66.00;;;;;;5050833;28;20196;-54
2023/06/04 07:34:18;;;;;;;1.00;0.90;;;20.10;66.10;;;;;;5042562;28;20214;-51
2023/06/04 07:36:46;;;;;;;3.85;1.20;;;20.10;66.00;;;;;;5045023;28;20255;-50
2023/06/04 07:39:13;;;;;;;2.55;0.95;;;20.10;66.00;;;;;;5046477;28;20202;-51
2023/06/04 07:41:39;;;;;;;2.35;1.40;;;20.10;66.10;;;;;;5040817;28;20487;-53
2023/06/04 07:44:06;;;;;;;2.55;1.65;;;20.10;65.90;;;;;;5045005;28;20227;-50
2023/06/04 07:46:33;;;;;;;1.35;1.15;;;20.10;66.00;;;;;;5053369;28;20198;-53
2023/06/04 07:48:59;;;;;;;2.78;1.30;;;20.10;66.00;;;;;;5036933;28;20607;-55
2023/06/04 07:51:26;;;;;;;5.72;1.27;;;20.10;66.10;;;;;;5038137;28;20290;-52
2023/06/04 07:53:54;;;;;;;2.65;1.10;;;20.10;66.00;;;;;;5036985;28;20830;-50
2023/06/04 07:56:21;;;;;;;1.38;1.10;;;20.10;66.10;;;;;;5045921;28;20215;-52
2023/06/04 07:58:47;;;;;;;2.58;1.10;;;20.10;66.00;;;;;;5042724;28;20230;-52
2023/06/04 08:01:15;;;;;;;2.38;1.58;;;20.10;66.00;;;;;;5046523;28;20652;-52
2023/06/04 08:03:42;;;;;;;2.88;0.80;;;20.10;66.00;;;;;;5044421;28;20200;-53
2023/06/04 08:06:09;;;;;;;2.25;1.30;;;20.10;65.90;;;;;;5047829;28;20290;-50
2023/06/04 08:08:36;;;;;;;1.92;1.30;;;20.10;65.80;;;;;;5040182;28;20196;-52
2023/06/04 08:11:04;;;;;;;1.50;1.10;;;20.10;65.60;;;;;;5048739;28;20294;-51
2023/06/04 08:13:31;;;;;;;4.45;1.10;;;20.10;65.50;;;;;;5035193;28;20203;-52
2023/06/04 08:15:57;;;;;;;1.55;1.10;;;20.10;65.40;;;;;;5049036;28;20198;-54
2023/06/04 08:18:24;;;;;;;1.80;1.30;;;20.10;65.30;;;;;;5046245;28;20223;-52
2023/06/04 08:20:51;;;;;;;2.22;1.50;;;20.10;65.10;;;;;;5048257;28;20226;-51
2023/06/04 08:23:17;;;;;;;2.85;1.27;;;20.10;65.10;;;;;;5055463;28;20241;-52
2023/06/04 08:25:44;;;;;;;6.82;1.70;;;20.10;64.90;;;;;;5034175;28;20273;-52
2023/06/04 08:28:15;;;;;;;1.30;1.10;;;20.10;64.80;;;;;;5040979;28;20202;-50
2023/06/04 08:30:42;;;;;;;2.78;1.20;;;20.10;64.70;;;;;;5036388;28;20199;-51
2023/06/04 08:33:10;;;;;;;1.50;1.33;;;20.10;64.60;;;;;;5045306;28;20199;-53
2023/06/04 08:35:37;;;;;;;2.88;1.73;;;20.10;64.30;;;;;;5041872;28;20624;-51
2023/06/04 08:38:04;;;;;;;2.58;1.58;;;20.10;64.20;;;;;;5049728;28;20588;-53
2023/06/04 08:40:30;;;;;;;1.75;1.30;;;20.10;64.00;;;;;;5044814;28;20639;-51
2023/06/04 08:42:58;;;;;;;1.75;1.65;;;20.10;63.80;;;;;;5043816;28;20294;-53
2023/06/04 08:45:27;;;;;;;2.92;1.58;;;20.10;63.50;;;;;;5046673;28;20294;-53
2023/06/04 08:47:54;;;;;;;3.75;1.60;;;20.10;63.30;;;;;;5036021;28;20207;-53
2023/06/04 08:50:23;;;;;;;2.65;1.73;;;20.10;63.00;;;;;;5038839;28;20213;-52
2023/06/04 08:52:54;;;;;;;5.57;1.95;;;20.00;62.70;;;;;;5035821;28;20660;-51
2023/06/04 08:55:20;;;;;;;4.55;2.08;;;20.10;62.60;;;;;;5033616;28;20226;-51
2023/06/04 08:57:50;;;;;;;2.05;1.83;;;20.10;62.90;;;;;;5038064;28;20622;-60
2023/06/04 09:00:18;;;;;;;6.18;1.48;;;20.10;62.70;;;;;;5038236;28;20199;-59
2023/06/04 09:02:47;;;;;;;3.85;1.75;;;20.10;62.70;;;;;;5040405;28;20191;-58
2023/06/04 09:05:20;;;;;;;3.17;2.13;;;20.10;62.70;;;;;;5040842;28;20559;-65
2023/06/04 09:07:48;;;;;;;1.90;1.70;;;20.10;63.10;;;;;;5046758;28;20227;-62
2023/06/04 09:10:22;;;;;;;2.92;1.60;;;20.10;63.30;;;;;;5040805;28;20250;-60
2023/06/04 09:12:50;;;;;;;1.92;1.60;;;20.10;63.70;;;;;;5044472;28;20218;-53
2023/06/04 09:15:16;;;;;;;2.97;2.38;;;20.20;64.00;;;;;;5044818;28;20211;-59
2023/06/04 09:17:43;;;;;;;2.25;1.75;;;20.20;64.00;;;;;;5041612;28;20239;-51
2023/06/04 09:20:21;;;;;;;2.70;1.73;;;20.20;64.00;;;;;;5044578;28;20583;-55
2023/06/04 09:22:47;;;;;;;1.58;1.48;;;20.20;64.00;;;;;;5048684;28;20199;-48
2023/06/04 09:25:21;;;;;;;1.77;1.67;;;20.20;63.90;;;;;;5047476;28;20264;-56
2023/06/04 09:27:47;;;;;;;2.65;1.70;;;20.20;63.70;;;;;;5045901;28;20272;-52
2023/06/04 09:30:14;;;;;;;2.35;1.80;;;20.20;63.90;;;;;;5040720;28;20264;-52
2023/06/04 09:32:41;;;;;;;2.75;2.05;;;20.30;64.00;;;;;;5050827;28;20254;-50
2023/06/04 09:35:12;;;;;;;3.85;1.95;;;20.30;64.20;;;;;;5049615;28;20257;-52
2023/06/04 09:37:41;;;;;;;2.00;1.80;;;20.30;64.20;;;;;;5047326;28;20295;-55
2023/06/04 09:40:09;;;;;;;3.90;2.45;;;20.30;64.00;;;;;;5042883;28;20245;-55
2023/06/04 09:42:45;;;;;;;3.47;2.13;;;20.40;63.90;;;;;;5045467;28;20207;-54
2023/06/04 09:45:13;;;;;;;2.45;2.25;;;20.40;63.70;;;;;;5042740;28;20207;-55
2023/06/04 09:47:41;;;;;;;4.82;2.05;;;20.40;63.70;;;;;;5050493;28;20199;-54
2023/06/04 09:50:11;;;;;;;5.03;1.88;;;20.40;63.70;;;;;;5051074;28;20196;-56
2023/06/04 09:52:39;;;;;;;3.72;1.90;;;20.40;63.60;;;;;;5045905;28;20207;-56
2023/06/04 09:55:19;;;;;;;2.00;1.70;;;20.40;63.40;;;;;;5051562;28;20191;-55
2023/06/04 09:57:48;;;;;;;2.13;1.90;;;20.40;63.50;;;;;;5046713;28;20592;-57
2023/06/04 10:00:17;;;;;;;2.42;2.22;;;20.50;63.50;;;;;;5044388;28;20291;-56
2023/06/04 10:02:44;;;;;;;3.75;2.25;;;20.50;63.40;;;;;;5049588;28;20196;-62
2023/06/04 10:05:14;;;;;;;3.85;2.17;;;20.50;63.30;;;;;;5045369;28;20198;-62
2023/06/04 10:07:41;;;;;;;3.00;2.45;;;20.50;63.20;;;;;;5049043;28;20207;-63
2023/06/04 10:10:11;;;;;;;3.67;2.20;;;20.50;63.00;;;;;;5050373;28;20207;-64
2023/06/04 10:12:40;;;;;;;5.45;3.35;;;20.50;62.90;;;;;;5044256;28;20561;-63
2023/06/04 10:15:12;;;;;;;4.35;1.95;;;20.50;62.50;;;;;;5043901;28;20191;-63
2023/06/04 10:17:39;;;;;;;2.53;2.10;;;20.50;62.30;;;;;;5051276;28;20237;-62
2023/06/04 10:20:09;;;;;;;3.85;2.10;;;20.50;61.90;;;;;;5043984;28;20200;-62
2023/06/04 10:22:36;;;;;;;4.15;2.30;;;20.50;61.40;;;;;;5049727;28;20199;-64
2023/06/04 10:25:04;;;;;;;2.92;2.33;;;20.50;60.70;;;;;;5038481;28;20216;-62
2023/06/04 10:27:32;;;;;;;2.58;2.38;;;20.50;60.30;;;;;;5051043;28;20200;-57
2023/06/04 10:30:00;;;;;;;2.33;2.13;;;20.50;60.30;;;;;;5041363;28;20207;-57
2023/06/04 10:32:28;;;;;;;2.70;2.50;;;20.50;59.80;;;;;;5050412;28;20206;-60
2023/06/04 10:34:57;;;;;;;4.55;3.10;;;20.50;59.40;;;;;;5046940;28;20195;-60
2023/06/04 10:37:25;;;;;;;5.03;2.60;;;20.50;59.10;;;;;;5043542;28;20996;-59
2023/06/04 10:39:52;;;;;;;6.05;3.15;;;20.50;59.00;;;;;;5036676;28;20250;-60
2023/06/04 10:42:20;;;;;;;4.03;2.60;;;20.50;59.00;;;;;;5044685;28;20671;-60
2023/06/04 10:44:49;;;;;;;4.05;2.45;;;20.50;58.50;;;;;;5039440;28;20194;-56
2023/06/04 10:47:24;;;;;;;2.35;2.15;;;20.50;58.50;;;;;;5038655;28;20745;-59
2023/06/04 10:49:51;;;;;;;3.08;2.30;;;20.50;57.70;;;;;;5046945;28;20203;-55
2023/06/04 10:52:18;;;;;;;4.70;2.95;;;20.50;57.90;;;;;;5045953;28;20283;-56
2023/06/04 10:54:48;;;;;;;4.40;2.97;;;20.50;58.00;;;;;;5050361;28;20195;-56
2023/06/04 10:57:16;;;;;;;4.00;2.80;;;20.50;57.80;;;;;;5049497;28;21145;-55
2023/06/04 10:59:53;;;;;;;2.92;2.33;;;20.50;57.70;;;;;;5044157;28;20643;-55
2023/06/04 11:02:20;;;;;;;2.78;2.45;;;20.50;57.70;;;;;;5052736;28;20567;-56
2023/06/04 11:04:59;;;;;;;4.25;2.40;;;20.40;56.80;;;;;;5045536;28;20286;-54
2023/06/04 11:07:26;;;;;;;4.93;2.70;;;20.40;56.50;;;;;;5049456;28;20200;-56
2023/06/04 11:09:53;;;;;;;3.17;2.10;;;20.40;56.60;;;;;;5047689;28;20203;-55
2023/06/04 11:12:20;;;;;;;2.63;2.42;;;20.40;56.60;;;;;;5049119;28;20542;-56
2023/06/04 11:14:55;;;;;;;3.20;2.13;;;20.40;56.50;;;;;;5054519;28;20236;-56
2023/06/04 11:17:22;;;;;;;2.80;2.20;;;20.40;56.30;;;;;;5043738;28;20302;-55
2023/06/04 11:19:55;;;;;;;3.38;2.15;;;20.40;56.10;;;;;;5038589;28;20291;-56
2023/06/04 11:22:21;;;;;;;1.95;1.73;;;20.40;56.30;;;;;;5042674;28;20206;-56
2023/06/04 11:24:48;;;;;;;3.78;2.05;;;20.40;55.90;;;;;;5044577;28;20273;-54
2023/06/04 11:27:15;;;;;;;2.90;2.58;;;20.40;56.00;;;;;;5047698;28;20584;-56
2023/06/04 11:29:41;;;;;;;2.47;1.90;;;20.40;55.50;;;;;;5040183;28;20200;-55
2023/06/04 11:32:08;;;;;;;4.38;2.15;;;20.40;55.20;;;;;;5042558;28;20241;-56
2023/06/04 11:34:37;;;;;;;2.45;1.75;;;20.40;55.50;;;;;;5034784;28;20204;-54
2023/06/04 11:37:14;;;;;;;2.60;2.00;;;20.40;55.40;;;;;;5042402;28;20283;-55
2023/06/04 11:39:42;;;;;;;4.03;1.85;;;20.40;55.00;;;;;;5041269;28;20207;-57
2023/06/04 11:42:11;;;;;;;2.28;2.08;;;20.40;55.00;;;;;;5043022;28;20567;-56
2023/06/04 11:44:38;;;;;;;2.78;1.70;;;20.40;55.00;;;;;;5043950;28;20246;-54
2023/06/04 11:47:07;;;;;;;2.75;2.55;;;20.40;55.20;;;;;;5046875;28;20582;-56
2023/06/04 11:49:37;;;;;;;3.58;1.60;;;20.40;55.20;;;;;;5036607;28;20746;-53
2023/06/04 11:52:04;;;;;;;1.95;1.75;;;20.40;54.80;;;;;;5020880;28;20211;-54
2023/06/04 11:54:36;;;;;;;8.32;1.80;;;20.40;54.70;;;;;;5040477;28;20203;-55
2023/06/04 11:57:04;;;;;;;1.67;1.55;;;20.40;55.00;;;;;;5046841;28;20198;-55
2023/06/04 11:59:31;;;;;;;1.63;1.45;;;20.40;54.80;;;;;;5041285;28;20227;-54
2023/06/04 12:01:58;;;;;;;2.78;1.88;;;20.30;54.70;;;;;;5032476;28;20499;-53
2023/06/04 12:04:30;;;;;;;3.85;1.52;;;20.30;54.20;;;;;;5041401;28;20253;-56
2023/06/04 12:06:59;;;;;;;4.97;1.55;;;20.40;54.00;;;;;;5042393;28;20602;-53
2023/06/04 12:09:27;;;;;;;3.83;1.77;;;20.40;53.90;;;;;;5038829;28;20199;-53
2023/06/04 12:12:00;;;;;;;2.13;1.77;;;20.30;54.20;;;;;;5046259;28;20286;-53
2023/06/04 12:14:27;;;;;;;1.90;1.70;;;20.30;54.40;;;;;;5042678;28;21041;-54
2023/06/04 12:16:58;;;;;;;3.28;1.80;;;20.40;55.00;;;;;;5047773;28;20246;-52
2023/06/04 12:19:26;;;;;;;4.75;1.95;;;20.40;55.00;;;;;;5041529;28;20725;-55
2023/06/04 12:22:02;;;;;;;2.38;1.85;;;20.40;55.00;;;;;;5045491;28;20196;-54
2023/06/04 12:24:29;;;;;;;2.30;1.90;;;20.40;55.10;;;;;;5050043;28;20662;-54
2023/06/04 12:27:04;;;;;;;3.55;1.70;;;20.30;55.30;;;;;;5046208;28;20237;-55
2023/06/04 12:29:31;;;;;;;6.25;1.40;;;20.40;55.40;;;;;;5040604;28;20196;-54
2023/06/04 12:32:05;;;;;;;1.90;1.60;;;20.40;55.50;;;;;;5045700;28;20663;-55
2023/06/04 12:34:32;;;;;;;2.58;1.80;;;20.40;55.70;;;;;;5039931;28;20286;-56
2023/06/04 12:36:59;;;;;;;1.88;1.27;;;20.40;55.60;;;;;;5046755;28;20574;-53
2023/06/04 12:39:25;;;;;;;2.55;1.92;;;20.40;55.70;;;;;;5043530;28;20580;-56
2023/06/04 12:41:52;;;;;;;5.47;1.90;;;20.40;55.90;;;;;;5046147;28;20269;-56
2023/06/04 12:44:20;;;;;;;3.88;1.92;;;20.40;55.90;;;;;;5044366;28;20245;-55
2023/06/04 12:46:47;;;;;;;2.70;2.00;;;20.40;56.00;;;;;;5041883;28;20296;-55
2023/06/04 12:49:14;;;;;;;2.00;1.80;;;20.40;56.00;;;;;;5044063;28;20195;-54
2023/06/04 12:51:40;;;;;;;2.30;2.10;;;20.40;56.10;;;;;;5046738;28;20199;-57